Weather observations for the past three days for
Manteo / Dare County Regional
Metric (Imperial)
Date Time (edt) Wind (kph) Vis. (km) Weather Sky Cond. Temperature (ºC) Relative Humidity Wind Chill (°C) Heat Index (°C) Pressure Precipitation (cm)
Air Dwpt 6 hour altimeter (cm) sea level (mb) 1 hr 3 hr 6 hr
Max. Min.
05 09:15 SW 20 16.09 Fair CLR 20 12.3 61% 76.43 0.0
05 07:55 SW 17 16.09 Fair CLR 17 13.2 17 15.5 78% 76.43 0.0
05 07:35 SW 17 16.09 Fair CLR 16.3 13 81% 76.4 0.0
05 07:15 SW 15 16.09 Fair CLR 16.2 13 81% 76.4 0.0
05 06:55 SW 17 16.09 Fair CLR 16 13 83% 76.38 0.0
05 06:35 SW 17 16.09 Fair CLR 15.7 12.8 83% 76.35 0.0
05 06:15 SW 17 16.09 Fair CLR 15.5 12.8 84% 76.35 0.0
05 05:55 SW 15 16.09 Fair CLR 15.5 12.8 84% 76.33 0.0
05 05:35 SW 17 16.09 Fair CLR 15.6 12.6 82% 76.33 0.0
05 05:15 SW 15 16.09 Fair CLR 15.7 12.5 81% 76.33 0.0
05 04:55 SW 17 16.09 Fair CLR 15.8 12.6 81% 76.33 0.0
05 04:35 SW 15 16.09 Fair CLR 16 12.6 80% 76.3 0.0
05 04:15 SW 17 16.09 Fair CLR 16 12.4 79% 76.3 0.0
05 03:55 SW 19 16.09 Fair CLR 16.1 12.5 79% 76.28 0.0
05 03:35 SW 19 16.09 Fair CLR 16.2 12.6 79% 76.28 0.0
05 03:15 SW 17 16.09 Fair CLR 16.5 12.7 78% 76.28 0.0
05 02:55 SW 19 16.09 Fair CLR 16.3 13 81% 76.28 0.0
05 02:35 SW 17 16.09 Fair CLR 16.1 13.1 83% 76.28 0.0
05 02:15 SW 19 16.09 Fair CLR 16.1 13.3 84% 76.28 0.0
05 01:55 SW 17 16.09 Fair CLR 16.2 13.5 18.7 16.2 84% 76.28 0.0
05 01:35 SW 19 16.09 Fair CLR 16.3 13.8 85% 76.3 0.0
05 01:15 SW 17 16.09 Fair CLR 16.5 13.9 85% 76.3 0.0
05 00:55 SW 20 16.09 Fair CLR 16.5 13.8 84% 76.3 0.0
05 00:35 SW 19 16.09 Fair CLR 16.6 13.8 84% 76.33 0.0
05 00:15 SW 20 16.09 Fair CLR 16.6 13.6 83% 76.3 0.0
04 23:55 SW 22 16.09 Fair CLR 17 13 77% 76.3 0.0
04 23:35 SW 22 16.09 Fair CLR 17.2 12.8 76% 76.3 0.0
04 23:15 SW 24 16.09 Fair CLR 17.7 12.6 72% 76.3 0.0
04 22:55 SW 26 16.09 Fair CLR 17.6 12.1 70% 76.3 0.0
04 22:35 SW 22 16.09 Fair CLR 17.7 12.3 71% 76.3 0.0
04 22:15 SW 24 16.09 Fair CLR 17.8 12.1 69% 76.3 0.0
04 21:55 SW 26 16.09 Fair CLR 17.8 11.7 68% 76.28 0.0
04 21:35 SW 28 16.09 Fair CLR 17.7 11.4 67% 76.28 0.0
04 21:15 SW 26 16.09 Fair CLR 17.8 11.3 66% 76.28 0.0
04 20:55 SW 28 16.09 Fair CLR 18 11.1 64% 76.25 0.0
04 20:35 SW 28 16.09 Fair CLR 18.2 11.2 64% 76.23 0.0
04 20:15 SW 31 G 43 16.09 Fair CLR 18.6 10.9 61% 76.2 0.0
04 19:55 SW 33 G 43 16.09 Fair and Breezy CLR 18.7 10.2 20.1 18.7 58% 76.2 0.0
04 19:35 SW 37 16.09 Fair and Breezy CLR 19.1 10 56% 76.17 0.0
04 19:15 SW 39 G 48 16.09 Fair and Breezy CLR 19.2 10 55% 76.17 0.0
04 18:55 SW 35 G 48 16.09 Fair and Breezy CLR 19.2 10.3 57% 76.17 0.0
04 18:35 SW 39 16.09 Fair and Breezy CLR 19.5 10.3 55% 76.17 0.0
04 18:15 SW 37 G 48 16.09 Fair and Breezy CLR 19.6 9.9 54% 76.17 0.0
04 17:55 SW 35 16.09 Fair and Breezy CLR 20 9.3 50% 76.2 0.0
04 17:15 SW 33 16.09 Fair and Breezy CLR 19.7 11.3 59% 76.2 0.0
04 16:55 S 33 16.09 Fair and Breezy CLR 19.7 11.6 60% 76.2 0.0
04 16:35 S 39 16.09 Fair and Breezy CLR 19.8 11.6 59% 76.2 0.0
04 16:15 S 30 G 41 16.09 Fair CLR 19.8 11.5 59% 76.2 0.0
04 15:55 S 28 G 43 16.09 Fair CLR 19.8 12 61% 76.23 0.0
04 15:35 S 30 G 41 16.09 Fair CLR 19.8 11.8 60% 76.23 0.0
04 15:15 S 31 G 43 16.09 Fair CLR 19.9 12.4 62% 76.23 0.0
04 14:55 S 31 G 43 16.09 Partly Cloudy SCT050 19.6 12.6 64% 76.25 0.0
04 14:35 S 31 G 43 16.09 Partly Cloudy SCT060 19.5 12.1 62% 76.25 0.0
04 14:15 S 30 G 43 16.09 Mostly Cloudy BKN060 19.2 12.1 64% 76.28 0.0
04 13:55 S 28 G 44 16.09 Mostly Cloudy BKN070 19.5 11.7 20.6 13.8 61% 76.28 0.0
04 13:35 S 31 G 44 16.09 Mostly Cloudy BKN070 19.3 12 63% 76.3 0.0
04 13:15 S 28 G 39 16.09 Partly Cloudy SCT070 19.7 11.7 60% 76.3 0.0
04 12:55 S 28 16.09 Fair CLR 19.4 11.7 61% 76.33 0.0
04 12:35 S 22 G 33 16.09 Fair CLR 19.3 11.7 62% 76.33 0.0
04 12:15 S 17 16.09 Fair CLR 20.5 10.8 54% 76.35 0.0
04 11:55 SW 15 G 26 16.09 Fair CLR 20.3 9 48% 76.35 0.0
04 11:35 SW 19 16.09 Fair CLR 20.6 8.5 46% 76.35 0.0
04 11:20 SW 15 16.09 Fair CLR 20 8.7 48% 76.35 0.0
04 10:55 SW 17 16.09 Fair CLR 19.6 9.7 53% 76.38 0.0
04 10:35 W 15 16.09 Fair CLR 19.2 9 52% 76.38 0.0
04 10:15 W 19 G 26 16.09 Fair CLR 18.5 9.2 55% 76.38 0.0
04 09:55 W 19 G 26 16.09 Fair CLR 18.4 9.2 55% 76.38 0.0
04 09:35 W 17 16.09 Fair CLR 17.6 9.8 60% 76.38 0.0
04 09:15 W 15 16.09 Fair CLR 16.9 9.8 63% 76.4 0.0
04 08:55 W 11 16.09 Fair CLR 16 9.6 66% 76.4 0.0
04 08:35 W 13 16.09 Fair CLR 15.4 9.8 69% 76.43 0.0
04 08:15 SW 11 16.09 Fair CLR 14.3 10 76% 76.43 0.0
04 07:55 W 11 16.09 Fair CLR 13.9 9.7 13.9 7.9 76% 76.43 0.0
04 07:35 W 13 16.09 Fair CLR 13.2 9.6 79% 76.45 0.0
04 07:15 W 7 16.09 Fair CLR 12.5 9.2 80% 76.43 0.0
04 06:55 W 7 16.09 Fair CLR 12.3 9.3 82% 76.43 0.0
04 06:35 SW 11 16.09 Fair CLR 12.5 9 79% 76.43 0.0
04 06:15 SW 11 16.09 Fair CLR 12.9 9.1 78% 76.43 0.0
04 05:55 SW 13 16.09 Fair CLR 12.9 9.3 79% 76.43 0.0
04 05:35 Calm 16.09 Fair CLR 8.2 7.1 93% 76.43 0.0
04 05:15 Calm 16.09 Fair CLR 8.8 7.1 89% 76.43 0.0
04 04:55 Calm 16.09 Fair CLR 8.3 7.2 93% 76.43 0.0
04 04:35 Calm 16.09 Fair CLR 9.3 8 92% 76.43 0.0
04 04:15 Calm 16.09 Fair CLR 8.7 7.5 92% 76.43 0.0
04 03:55 Calm 16.09 Fair CLR 8.4 7 91% 76.45 0.0
04 03:35 Calm 16.09 Fair CLR 9.6 7.9 89% 76.43 0.0
04 03:15 Calm 16.09 Fair CLR 9.7 7.3 85% 76.43 0.0
04 02:55 S 7 16.09 Fair CLR 11.9 7.9 77% 76.43 0.0
04 02:15 S 9 16.09 Fair CLR 11.8 8 78% 76.43 0.0
04 01:55 S 11 16.09 Fair CLR 12 8.2 12 9.2 78% 76.45 0.0
04 01:35 S 7 16.09 Fair CLR 11.5 8.1 80% 76.45 0.0
04 01:15 S 9 16.09 Fair CLR 10.9 7.7 81% 76.45 0.0
04 00:55 SE 7 16.09 Fair CLR 10 7 82% 9 76.45 0.0
04 00:35 SE 7 16.09 Fair CLR 9.3 6.5 83% 9 76.45 0.0
04 00:15 SE 6 16.09 Fair CLR 9.2 6 81% 76.45 0.0
03 23:55 S 9 16.09 Fair CLR 10 6 76% 9 76.48 0.0
03 23:35 SE 6 16.09 Fair CLR 9.7 5.6 76% 76.48 0.0
03 23:15 SE 6 16.09 Fair CLR 9.7 5.3 74% 76.48 0.0
03 22:55 SE 7 16.09 Fair CLR 9.7 5.1 73% 9 76.48 0.0
03 22:35 SE 6 16.09 Fair CLR 9.6 4.8 72% 76.48 0.0
03 22:15 SE 9 16.09 Fair CLR 9.8 4.7 71% 9 76.48 0.0
03 21:55 SE 11 16.09 Fair CLR 10 4.5 69% 9 76.45 0.0
03 21:35 SE 11 16.09 Fair CLR 10 4.5 69% 9 76.43 0.0
03 21:15 SE 9 16.09 Fair CLR 10 4.2 68% 9 76.4 0.0
03 20:55 SE 9 16.09 Fair CLR 10 4 67% 9 76.4 0.0
03 20:35 SE 11 16.09 Fair CLR 10.1 3.7 65% 76.38 0.0
03 20:15 SE 11 16.09 Fair CLR 10.3 3.7 64% 76.35 0.0
03 19:55 SE 9 16.09 Fair CLR 10.6 3.6 16.3 10.6 62% 76.35 0.0
03 19:35 SE 15 16.09 Fair CLR 11.2 3.5 59% 76.33 0.0
03 19:15 SE 13 16.09 Fair CLR 11.7 3.4 57% 76.33 0.0
03 18:55 SE 17 16.09 Fair CLR 12.4 3.6 55% 76.3 0.0
03 18:35 SE 17 16.09 Fair CLR 12.7 3.6 54% 76.3 0.0
03 18:15 E 7 16.09 Partly Cloudy SCT060 14 3.5 49% 76.3 0.0
03 17:55 E 9 16.09 Fair CLR 13.6 3.3 50% 76.3 0.0
03 17:35 W 9 16.09 Fair CLR 16 1.5 38% 76.28 0.0
03 17:15 NW 13 16.09 Fair CLR 16.1 2 39% 76.28 0.0
03 16:55 NW 11 16.09 Fair CLR 16 0.4 35% 76.28 0.0
03 16:35 NW 13 16.09 Fair CLR 15.9 1.3 37% 76.28 0.0
03 16:15 NW 13 16.09 Fair CLR 16.1 1.4 37% 76.28 0.0
03 15:55 N 17 G 28 16.09 Fair CLR 15.9 1.2 37% 76.3 0.0
03 15:35 NW 17 16.09 Fair CLR 15.5 1.3 38% 76.33 0.0
03 15:15 NW 15 G 28 16.09 Fair CLR 15.6 1.4 38% 76.33 0.0
03 14:55 NW 17 16.09 Fair CLR 15.2 1.2 39% 76.33 0.0
03 14:35 NW 20 G 26 16.09 Fair CLR 15.6 1.8 40% 76.35 0.0
03 14:15 NW 17 G 26 16.09 Fair CLR 15 1.1 39% 76.35 0.0
03 13:55 NW 19 G 31 16.09 Fair CLR 14.6 0.3 15 12.5 38% 76.35 0.0
03 13:35 NW 13 G 31 16.09 Fair CLR 14.3 0.8 40% 76.38 0.0
03 13:15 NW 19 G 28 16.09 Fair CLR 14.6 1.2 40% 76.38 0.0
03 12:55 N 17 G 28 16.09 Fair CLR 14.4 1.3 41% 76.38 0.0
03 12:35 NW 17 G 28 16.09 Fair CLR 14 0.8 41% 76.38 0.0
03 12:15 NW 17 G 31 16.09 Fair CLR 14.5 1.9 43% 76.38 0.0
03 11:55 NW 20 G 33 16.09 Fair CLR 14.3 1.1 41% 76.38 0.0
03 11:35 NW 13 G 28 16.09 Fair CLR 13.8 1.3 43% 76.38 0.0
03 11:15 N 13 G 31 16.09 Fair CLR 13.5 1.9 46% 76.38 0.0
03 10:55 N 19 G 31 16.09 Partly Cloudy SCT060 13.4 1.6 45% 76.38 0.0
03 10:35 N 22 G 31 16.09 Mostly Cloudy BKN060 13.2 0.8 43% 76.38 0.0
03 10:15 N 17 G 28 16.09 Partly Cloudy SCT060 13.1 1.3 45% 76.38 0.0
03 09:55 N 19 G 33 16.09 Partly Cloudy SCT065 12.9 1 44% 76.35 0.0
03 09:35 N 22 G 37 16.09 Partly Cloudy SCT065 SCT075 13 2 47% 76.33 0.0
03 09:15 N 17 G 31 16.09 Partly Cloudy SCT065 13 4.1 55% 76.33 0.0
03 08:55 N 17 G 28 16.09 Partly Cloudy SCT041 12.7 3.5 54% 76.3 0.0
03 08:35 N 24 G 33 16.09 Fair CLR 12.9 3.7 54% 76.28 0.0
03 08:15 NE 22 G 30 16.09 Fair CLR 12.9 4.3 56% 76.25 0.0
03 07:55 NE 17 16.09 Fair CLR 12.5 6.2 12.5 11.3 66% 76.23 0.0
03 07:35 N 15 16.09 Fair CLR 12 6 67% 76.2 0.0
03 07:15 N 19 16.09 Fair CLR 11.7 5.2 65% 76.2 0.0
03 06:55 N 11 16.09 Partly Cloudy SCT085 11.5 4.6 63% 76.17 0.0
03 06:35 N 15 16.09 Mostly Cloudy BKN085 11.5 4.2 61% 76.15 0.0
03 06:15 N 13 G 30 16.09 Partly Cloudy SCT085 11.6 3.4 57% 76.12 0.0
03 05:55 N 11 16.09 Partly Cloudy SCT085 11.5 4.2 61% 76.1 0.0
03 05:35 N 11 16.09 Fair CLR 11.6 3.9 59% 76.07 0.0
03 05:15 N 13 16.09 Partly Cloudy SCT070 11.7 3.6 58% 76.07 0.0
03 04:55 N 15 16.09 Fair CLR 11.7 3.6 58% 76.05 0.0
03 04:35 N 15 G 28 16.09 Fair CLR 12 3.3 56% 76.02 0.0
03 04:15 N 9 16.09 Fair CLR 12.1 4.5 60% 76.02 0.0
03 03:55 N 15 16.09 Fair CLR 12.2 3.7 56% 76 0.0
03 03:35 N 15 G 30 16.09 Fair CLR 12.2 3.9 57% 76 0.0
03 03:15 N 15 16.09 Fair CLR 12.1 4.5 60% 75.95 0.0
03 02:55 N 19 G 30 16.09 Fair CLR 12 4.9 62% 75.95 0.0
03 02:35 N 13 16.09 Fair CLR 12.2 5.3 63% 75.9 0.0
03 02:15 N 13 16.09 Partly Cloudy SCT110 12.3 5.4 63% 75.9 0.0
03 01:55 N 15 16.09 Partly Cloudy SCT090 SCT110 12.4 5.5 12.5 11.1 63% 75.9 0.0
03 01:35 N 15 16.09 Mostly Cloudy SCT090 BKN120 12.3 5.5 63% 75.92 0.0
03 01:15 N 15 16.09 Overcast SCT090 OVC110 12.4 5.7 64% 75.92 0.0
03 00:55 N 13 16.09 Overcast SCT080 OVC110 12.5 5.6 63% 75.92 0.0
03 00:35 N 15 16.09 Overcast SCT065 SCT080 OVC100 12.4 6 65% 75.95 0.0
03 00:15 N 11 16.09 Overcast SCT065 OVC090 12.2 5.3 63% 75.92 0.0
02 23:55 N 15 16.09 Overcast SCT065 SCT075 OVC090 12.1 4.8 61% 75.92 0.0
02 23:35 N 20 G 30 16.09 Overcast OVC090 12.1 4.9 62% 75.92 0.0
02 23:15 N 19 G 28 16.09 Overcast OVC090 12 5.1 63% 75.92 0.0
02 22:55 N 17 G 26 16.09 Overcast OVC090 12.2 6.3 67% 75.92 0.0
02 22:35 N 11 16.09 Overcast OVC090 12 7.4 74% 75.92 0.0
02 22:15 N 19 16.09 Overcast OVC090 12 7.5 74% 75.92 0.0
02 21:55 N 19 16.09 Overcast SCT080 OVC090 12 7.7 75% 75.9 0.0
02 21:35 N 13 16.09 Overcast OVC090 11.7 8.2 79% 75.92 0.0
02 21:15 N 11 16.09 Overcast OVC090 11.5 8.6 83% 75.92 0.0
02 20:55 N 15 16.09 Overcast SCT060 OVC090 11.3 8.5 83% 75.87 0.0
02 20:35 N 11 16.09 Overcast SCT060 OVC080 11.2 8.5 84% 75.9 0.0
02 20:15 N 9 16.09 Overcast SCT070 OVC080 11.2 8.1 81% 75.87 0.0
02 19:55 N 15 16.09 Overcast SCT030 SCT047 OVC080 11.1 8.1 12 10.5 82% 75.84 0.0 0.1
02 19:35 N 15 16.09 Overcast SCT046 BKN065 OVC075 11.2 7.6 79% 75.84 0.0
02 19:15 NE 22 G 31 16.09 Overcast SCT023 SCT041 OVC075 11 7.4 79% 75.79 0.0
02 18:55 N 22 G 30 16.09 Overcast SCT015 OVC025 10.7 7.6 81% 75.82 0.0
02 18:35 NE 22 16.09 Overcast SCT017 OVC023 10.7 8.3 85% 75.79 0.0
02 18:15 N 22 G 33 16.09 Overcast OVC021 10.8 8.2 84% 75.84 0.0
02 17:55 NE 26 16.09 Overcast SCT016 BKN023 OVC065 10.7 8.4 86% 75.84 0.0 0.05
02 17:40 NE 28 16.09 Overcast SCT016 SCT023 OVC065 10.6 8.5 87% 75.82 0.0 0.05
02 17:15 NE 19 G 26 16.09 Overcast OVC065 10.6 8.3 86% 75.82 0.0
02 16:55 NE 20 16.09 Overcast OVC065 10.7 7.9 83% 75.82 0.0 0.03 0.05
02 16:40 NE 22 16.09 Overcast OVC065 10.9 8.1 83% 75.79 0.0
02 16:15 NE 19 16.09 Overcast OVC065 10.9 8.1 83% 75.79 0.0
02 15:55 NE 22 G 30 16.09 Overcast SCT014 SCT039 OVC065 11.2 8.3 83% 75.79 0.0
02 15:15 NE 33 G 41 16.09 Overcast and Breezy SCT014 BKN080 OVC100 11.8 9 83% 75.84 0.0
02 14:55 NE 28 G 39 16.09 Overcast BKN012 BKN024 OVC070 12 9.9 87% 75.87 0.0 0.03
02 14:35 NE 24 G 35 16.09 Overcast BKN012 BKN022 OVC036 12 10.3 89% 75.87 0.0 0.03
02 14:15 NE 28 G 39 16.09 Overcast BKN012 OVC037 11.5 10 91% 75.9 0.0 0.03
02 13:55 NE 24 G 41 16.09 Overcast OVC010 11.3 9.7 13.5 11.3 90% 75.97 0.0 0.03 0.13
02 13:35 N 28 G 39 16.09 Overcast OVC010 12.1 10.6 91% 75.97 0.0
02 13:15 NE 28 G 37 16.09 Overcast OVC008 12.3 10.7 90% 75.95 0.0
02 12:55 NE 24 G 37 16.09 Overcast OVC008 12.2 10.8 91% 75.9 0.0
02 12:35 NE 26 G 35 16.09 Overcast OVC008 12.9 11.8 93% 75.9 0.0
02 12:15 NE 24 G 31 16.09 Overcast OVC008 12.6 11.5 93% 75.95 0.0
02 11:55 NE 22 G 30 16.09 Overcast BKN010 BKN017 OVC060 12.5 11.2 92% 76 0.0 0.03
02 11:35 NE 20 G 30 16.09 Overcast SCT010 BKN036 OVC060 12.6 11.1 91% 76 0.0
02 11:15 NE 22 16.09 Overcast SCT010 SCT020 OVC060 12.6 11.2 91% 75.97 0.0
02 10:55 NE 19 16.09 Overcast OVC070 12.8 11.3 91% 75.95 0.0 0.08
02 10:35 NE 19 G 28 16.09 Overcast SCT010 OVC070 13 11.2 89% 75.92 0.0
02 10:15 NE 20 G 28 16.09 Overcast OVC070 13.1 11.5 90% 75.92 0.0
02 09:55 NE 22 G 30 16.09 Overcast OVC070 13.2 11.6 90% 75.92 0.0
02 09:35 NE 15 16.09 Overcast SCT009 SCT018 OVC070 13.1 11.5 90% 75.9 0.0
Date Time (edt) Wind (kph) Vis. (km) Weather Sky Cond. Air Dwpt Max. Min. Relative Humidity Wind Chill (°C) Heat Index (°C) altimeter (cm) sea level (mb) 1 hr 3 hr 6 hr
6 hour
Temperature (ºC) Pressure Precipitation (cm)